KBPT

Jack Brooks Regional Airport

Beaumont/Port Arthur, Texas, USA
METAR KBPT 162353Z 22003KT 10SM CLR 13/09 A3027 RMK AO2 SLP248 T01280094 10194 20128 53007
Observed Flight Rules
Dec-16 @ 23:53 UTC (30 minutes ago) Visual Flight Rules
Wind Visibility Clouds
220° at 3 knots 10 miles
  • Clear skies
Temperatures Readings
Current 13°C / 55°F
Dewpoint 9°C / 48°F
Humidity 77%
Altimeter 30.27" Hg
Pressure 1024.8 hPa
Elevation 5
METAR KBPT 162353Z 22003KT 10SM CLR 13/09 A3027 RMK AO2 SLP248 T01280094 10194 20128 53007
Observed Flight Rules
Dec-16 @ 23:53 UTC
(30 minutes ago)
VFR
Wind Visibility
220° at 3 knots 10 miles
Clouds
  • Clear skies
Temperature Dewpoint
13°C / 55°F 9°C / 48°F
Humidity Altimeter Pressure
77% 30.27" Hg 1024.8 hPa